Nil Demir — 3ELP5 — position and weather

sailwx.info

Track history (hours):
 
Tides and Currents Weather Stations Pressure Air Temp Water Temp Dewpoint Dewpoint Depression Visibility Wind Speed Wind Dir Waves Ship Positions

Nil Demir

Last reported at 2017-Nov-12 14:02 UTC. Time now 2017-Nov-19 02:56 UTC.
Position N 45°07' E 036°30'.

Length 93 m; draft 3.8 m.

Type: Cargo ship. MMSI: 354692000.

Date/timePositionNaut miles runAvg speedWind from/ knotsBaromVisibWave heightAir tempDewpointWater temp
2017-Nov-12 14:02N 45°07' E 036°30'0 9.1
2017-Nov-12 14:00N 45°08' E 036°30'4 8.7
2017-Nov-12 13:30N 45°12' E 036°28'4 8.6
2017-Nov-12 13:00N 45°16' E 036°28'3 5.3
2017-Nov-12 12:30N 45°18' E 036°30'4 7.6
2017-Nov-12 12:00N 45°20' E 036°35'3 5.5
2017-Nov-12 11:30N 45°21' E 036°38'3 6.3
2017-Nov-12 11:00N 45°24' E 036°40'3 6.9
2017-Nov-12 10:30N 45°27' E 036°40'1 2.8
2017-Nov-12 10:00N 45°28' E 036°39'0 0.0
2017-Nov-12 09:30N 45°28' E 036°39'0 0.0
2017-Nov-12 09:00N 45°28' E 036°39'0 0.0
2017-Nov-12 08:30N 45°28' E 036°39'0 0.0
2017-Nov-12 08:00N 45°28' E 036°39'0 0.0
2017-Nov-12 07:30N 45°28' E 036°39'0 0.0
2017-Nov-12 07:00N 45°28' E 036°39'0 0.0
2017-Nov-12 06:30N 45°28' E 036°39'0 0.0
2017-Nov-12 06:00N 45°28' E 036°39'0 0.0
2017-Nov-12 05:30N 45°28' E 036°39'0 0.0
2017-Nov-12 05:00N 45°28' E 036°39'0 0.0
2017-Nov-12 04:30N 45°28' E 036°39'1 1.7
2017-Nov-12 04:00N 45°29' E 036°40'  
2017-Nov-03 20:09N 45°30' E 036°44'210.2
2017-Nov-03 20:00N 45°28' E 036°43'510.2
2017-Nov-03 19:30N 45°23' E 036°41'4 7.7
2017-Nov-03 19:00N 45°20' E 036°37'4 8.5
2017-Nov-03 18:30N 45°19' E 036°32'4 7.3
2017-Nov-03 18:00N 45°16' E 036°29'2 3.9
2017-Nov-03 17:29N 45°14' E 036°29'1 2.7
2017-Nov-03 17:00N 45°13' E 036°31'0 0.1
2017-Nov-03 16:30N 45°13' E 036°31'0 0.0
2017-Nov-03 16:00N 45°13' E 036°31'0 0.0
2017-Nov-03 15:30N 45°13' E 036°31'0 0.0
2017-Nov-03 15:00N 45°13' E 036°31'0 0.1
2017-Nov-03 14:30N 45°13' E 036°31'0 0.0
2017-Nov-03 14:00N 45°13' E 036°31'0 0.1
2017-Nov-03 13:30N 45°13' E 036°31'0 0.0
2017-Nov-03 13:00N 45°13' E 036°31'0 0.0
2017-Nov-03 12:30N 45°13' E 036°31'0 0.1
2017-Nov-03 12:00N 45°13' E 036°31'0 0.1
2017-Nov-03 11:30N 45°13' E 036°31'0 0.1
2017-Nov-03 11:00N 45°13' E 036°31'0 0.1
2017-Nov-03 10:30N 45°13' E 036°31'0 0.1
2017-Nov-03 10:00N 45°13' E 036°31'0 0.1
2017-Nov-03 09:30N 45°13' E 036°31'0 0.1
2017-Nov-03 09:00N 45°13' E 036°31'0 0.1
2017-Nov-03 08:30N 45°13' E 036°31'0 0.0
2017-Nov-03 08:00N 45°13' E 036°31'0 0.1
2017-Nov-03 07:30N 45°13' E 036°31'0 0.9
2017-Nov-03 07:00N 45°13' E 036°30'4 7.2
2017-Nov-03 06:30N 45°09' E 036°30'  
Track history (hours):
 
Tides and Currents Weather Stations Pressure Air Temp Water Temp Dewpoint Dewpoint Depression Visibility Wind Speed Wind Dir Waves Ship Positions

Nil Demir

Last reported at 2017-Nov-12 14:02 UTC. Time now 2017-Nov-19 02:56 UTC.
Position N 45°07' E 036°30'.

Length 93 m; draft 3.8 m.

Type: Cargo ship. MMSI: 354692000.

Date/timePositionNaut miles runAvg speedWind from/ knotsBaromVisibWave heightAir tempDewpointWater temp
2017-Nov-12 14:02N 45°07' E 036°30'0 9.1
2017-Nov-12 14:00N 45°08' E 036°30'4 8.7
2017-Nov-12 13:30N 45°12' E 036°28'4 8.6
2017-Nov-12 13:00N 45°16' E 036°28'3 5.3
2017-Nov-12 12:30N 45°18' E 036°30'4 7.6
2017-Nov-12 12:00N 45°20' E 036°35'3 5.5
2017-Nov-12 11:30N 45°21' E 036°38'3 6.3
2017-Nov-12 11:00N 45°24' E 036°40'3 6.9
2017-Nov-12 10:30N 45°27' E 036°40'1 2.8
2017-Nov-12 10:00N 45°28' E 036°39'0 0.0
2017-Nov-12 09:30N 45°28' E 036°39'0 0.0
2017-Nov-12 09:00N 45°28' E 036°39'0 0.0
2017-Nov-12 08:30N 45°28' E 036°39'0 0.0
2017-Nov-12 08:00N 45°28' E 036°39'0 0.0
2017-Nov-12 07:30N 45°28' E 036°39'0 0.0
2017-Nov-12 07:00N 45°28' E 036°39'0 0.0
2017-Nov-12 06:30N 45°28' E 036°39'0 0.0
2017-Nov-12 06:00N 45°28' E 036°39'0 0.0
2017-Nov-12 05:30N 45°28' E 036°39'0 0.0
2017-Nov-12 05:00N 45°28' E 036°39'0 0.0
2017-Nov-12 04:30N 45°28' E 036°39'1 1.7
2017-Nov-12 04:00N 45°29' E 036°40'  
2017-Nov-03 20:09N 45°30' E 036°44'210.2
2017-Nov-03 20:00N 45°28' E 036°43'510.2
2017-Nov-03 19:30N 45°23' E 036°41'4 7.7
2017-Nov-03 19:00N 45°20' E 036°37'4 8.5
2017-Nov-03 18:30N 45°19' E 036°32'4 7.3
2017-Nov-03 18:00N 45°16' E 036°29'2 3.9
2017-Nov-03 17:29N 45°14' E 036°29'1 2.7
2017-Nov-03 17:00N 45°13' E 036°31'0 0.1
2017-Nov-03 16:30N 45°13' E 036°31'0 0.0
2017-Nov-03 16:00N 45°13' E 036°31'0 0.0
2017-Nov-03 15:30N 45°13' E 036°31'0 0.0
2017-Nov-03 15:00N 45°13' E 036°31'0 0.1
2017-Nov-03 14:30N 45°13' E 036°31'0 0.0
2017-Nov-03 14:00N 45°13' E 036°31'0 0.1
2017-Nov-03 13:30N 45°13' E 036°31'0 0.0
2017-Nov-03 13:00N 45°13' E 036°31'0 0.0
2017-Nov-03 12:30N 45°13' E 036°31'0 0.1
2017-Nov-03 12:00N 45°13' E 036°31'0 0.1
2017-Nov-03 11:30N 45°13' E 036°31'0 0.1
2017-Nov-03 11:00N 45°13' E 036°31'0 0.1
2017-Nov-03 10:30N 45°13' E 036°31'0 0.1
2017-Nov-03 10:00N 45°13' E 036°31'0 0.1
2017-Nov-03 09:30N 45°13' E 036°31'0 0.1
2017-Nov-03 09:00N 45°13' E 036°31'0 0.1
2017-Nov-03 08:30N 45°13' E 036°31'0 0.0
2017-Nov-03 08:00N 45°13' E 036°31'0 0.1
2017-Nov-03 07:30N 45°13' E 036°31'0 0.9
2017-Nov-03 07:00N 45°13' E 036°30'4 7.2
2017-Nov-03 06:30N 45°09' E 036°30'  

Dump ship's entire track history